Time;durP1;ratioP1;P1;durP2;ratioP2;P2;SDS_P1;SDS_P2;PMS_P1;PMS_P2;Temp;Humidity;BMP_temperature;BMP_pressure;BME280_temperature;BME280_humidity;BME280_pressure;Samples;Min_cycle;Max_cycle;Signal;HPM_P1;HPM_P2
2023/03/27 00:01:15;;;;;;;7.32;0.90;;;1.40;63.60;;;;;;4140060;28;20013;-85
2023/03/27 00:03:16;;;;;;;11.00;0.95;;;1.40;63.50;;;;;;4162888;28;20384;-84
2023/03/27 00:05:19;;;;;;;7.10;0.88;;;1.40;63.70;;;;;;4129641;28;20029;-84
2023/03/27 00:07:48;;;;;;;5.00;1.23;;;1.40;63.70;;;;;;4145824;28;20028;-83
2023/03/27 00:09:49;;;;;;;6.93;1.17;;;1.40;63.70;;;;;;4161116;28;20025;-83
2023/03/27 00:12:10;;;;;;;7.47;1.10;;;1.40;63.60;;;;;;4160421;28;20033;-83
2023/03/27 00:14:31;;;;;;;5.75;1.17;;;1.30;63.80;;;;;;4147398;28;20120;-84
2023/03/27 00:16:52;;;;;;;11.52;1.05;;;1.40;63.90;;;;;;4147564;28;20038;-84
2023/03/27 00:19:13;;;;;;;11.88;1.25;;;1.40;63.90;;;;;;4161201;28;20061;-83
2023/03/27 00:21:34;;;;;;;9.05;1.10;;;1.40;64.00;;;;;;4141590;28;20041;-84
2023/03/27 00:23:55;;;;;;;8.93;1.45;;;1.30;64.10;;;;;;4156929;28;20022;-85
2023/03/27 00:26:16;;;;;;;11.27;1.20;;;1.30;64.10;;;;;;4148694;28;20033;-84
2023/03/27 00:28:37;;;;;;;10.20;1.02;;;1.30;64.10;;;;;;4162337;28;20037;-83
2023/03/27 00:30:41;;;;;;;11.90;1.40;;;1.30;64.20;;;;;;4149148;28;20033;-85
2023/03/27 00:32:44;;;;;;;11.27;1.73;;;1.20;64.20;;;;;;4145507;28;20113;-84
2023/03/27 00:34:45;;;;;;;6.80;1.40;;;1.20;64.30;;;;;;4147699;28;20048;-83
2023/03/27 00:36:49;;;;;;;14.73;1.00;;;1.30;64.60;;;;;;4145657;28;20050;-83
2023/03/27 00:38:51;;;;;;;8.73;1.35;;;1.20;64.80;;;;;;4126355;28;20030;-84
2023/03/27 00:40:54;;;;;;;10.45;1.20;;;1.10;64.80;;;;;;4164135;28;20029;-85
2023/03/27 00:42:56;;;;;;;6.60;1.30;;;1.20;64.90;;;;;;4145422;28;20068;-84
2023/03/27 00:45:01;;;;;;;8.02;1.73;;;1.20;65.30;;;;;;4147672;28;20029;-84
2023/03/27 00:47:03;;;;;;;3.65;0.85;;;1.20;65.40;;;;;;4132681;28;20030;-84
2023/03/27 00:49:10;;;;;;;3.72;0.95;;;1.10;65.60;;;;;;4163950;28;20029;-85
2023/03/27 00:51:11;;;;;;;8.98;1.48;;;1.00;65.80;;;;;;4149075;28;20081;-84
2023/03/27 00:53:18;;;;;;;6.35;1.10;;;1.10;65.90;;;;;;4142943;28;20085;-85
2023/03/27 00:55:21;;;;;;;10.35;1.55;;;1.10;66.10;;;;;;4157652;28;20036;-84
2023/03/27 00:57:24;;;;;;;11.40;1.10;;;1.00;66.10;;;;;;4144978;28;20021;-83
2023/03/27 00:59:30;;;;;;;10.10;1.25;;;1.00;66.00;;;;;;4147796;28;20041;-83
2023/03/27 01:01:31;;;;;;;7.20;1.08;;;0.90;66.10;;;;;;4128692;28;20464;-84
2023/03/27 01:03:35;;;;;;;8.85;1.20;;;0.90;66.10;;;;;;4157434;28;20021;-84
2023/03/27 01:05:37;;;;;;;6.80;1.13;;;0.90;66.20;;;;;;4164963;28;20450;-84
2023/03/27 01:07:39;;;;;;;8.15;1.25;;;1.00;66.40;;;;;;4148430;28;20026;-85
2023/03/27 01:09:44;;;;;;;4.83;1.23;;;1.00;66.40;;;;;;4163946;28;20036;-85
2023/03/27 01:12:04;;;;;;;7.28;1.20;;;0.90;66.50;;;;;;4146010;28;20352;-84
2023/03/27 01:14:16;;;;;;;7.20;1.02;;;0.90;66.60;;;;;;4157956;28;20032;-84
2023/03/27 01:16:27;;;;;;;13.23;1.30;;;0.80;66.60;;;;;;4161779;28;20047;-84
2023/03/27 01:19:05;;;;;;;14.57;1.52;;;0.80;66.70;;;;;;4167185;28;20017;-83
2023/03/27 01:21:36;;;;;;;8.88;1.20;;;0.80;66.80;;;;;;4167639;28;20065;-84
2023/03/27 01:24:10;;;;;;;10.20;1.10;;;0.70;66.80;;;;;;4162757;28;20029;-83
2023/03/27 01:26:19;;;;;;;;;;;0.70;66.90;;;;;;4135115;28;20027;-83
2023/03/27 01:28:32;;;;;;;8.10;1.10;;;0.70;66.90;;;;;;4145502;28;19967;-83
2023/03/27 01:31:02;;;;;;;6.83;1.20;;;0.80;66.80;;;;;;4165055;28;20040;-83
2023/03/27 01:33:06;;;;;;;9.98;1.25;;;0.70;67.00;;;;;;4117085;28;20280;-83
2023/03/27 01:35:25;;;;;;;11.07;1.08;;;0.60;66.90;;;;;;4148182;28;20026;-84
2023/03/27 01:37:46;;;;;;;4.82;1.35;;;0.60;67.10;;;;;;4132528;28;20030;-84
2023/03/27 01:39:58;;;;;;;9.60;1.25;;;0.60;67.20;;;;;;4162505;28;20088;-83
2023/03/27 01:42:11;;;;;;;4.60;1.08;;;0.60;67.20;;;;;;4147814;28;20221;-84
2023/03/27 01:44:37;;;;;;;4.88;1.08;;;0.60;67.30;;;;;;4164150;28;20212;-84
2023/03/27 01:46:46;;;;;;;9.15;1.67;;;0.50;67.30;;;;;;4152340;28;20072;-83
2023/03/27 01:48:56;;;;;;;6.40;0.98;;;0.60;67.20;;;;;;4168305;28;20022;-83
2023/03/27 01:51:09;;;;;;;10.02;1.38;;;0.50;67.10;;;;;;4132315;28;20030;-84
2023/03/27 01:53:27;;;;;;;6.60;1.30;;;0.50;67.30;;;;;;4165147;28;20021;-84
2023/03/27 01:55:35;;;;;;;6.75;1.50;;;0.50;67.30;;;;;;4147144;28;20042;-84
2023/03/27 01:57:48;;;;;;;5.75;1.38;;;0.50;67.50;;;;;;4148545;28;20060;-84
2023/03/27 01:59:57;;;;;;;11.88;1.25;;;0.50;67.60;;;;;;4148500;28;20122;-83
2023/03/27 02:02:05;;;;;;;6.72;1.02;;;0.40;67.50;;;;;;4150494;28;20253;-83
2023/03/27 02:04:12;;;;;;;11.77;1.42;;;0.50;67.80;;;;;;4167374;28;20104;-83
2023/03/27 02:06:25;;;;;;;11.77;1.48;;;0.40;67.80;;;;;;4162468;28;20057;-84
2023/03/27 02:08:33;;;;;;;5.03;0.80;;;0.40;67.80;;;;;;4145108;28;20041;-83
2023/03/27 02:10:40;;;;;;;4.53;0.90;;;0.40;67.90;;;;;;4145221;28;20061;-82
2023/03/27 02:12:48;;;;;;;10.15;1.45;;;0.40;68.00;;;;;;4148173;28;20056;-83
2023/03/27 02:15:13;;;;;;;8.30;1.27;;;0.30;68.00;;;;;;4140448;28;20034;-84
2023/03/27 02:17:18;;;;;;;13.40;1.38;;;0.30;68.20;;;;;;4146891;28;20087;-84
2023/03/27 02:19:39;;;;;;;6.28;1.02;;;0.30;68.10;;;;;;4164830;28;20071;-83
2023/03/27 02:21:40;;;;;;;7.03;1.23;;;0.30;68.40;;;;;;4167402;28;20040;-82
2023/03/27 02:23:42;;;;;;;8.75;1.42;;;0.30;68.40;;;;;;4160145;28;20403;-83
2023/03/27 02:25:44;;;;;;;8.77;1.05;;;0.30;68.50;;;;;;4163306;28;20037;-82
2023/03/27 02:27:47;;;;;;;5.65;1.08;;;0.30;68.60;;;;;;4152289;28;20026;-83
2023/03/27 02:29:53;;;;;;;7.45;1.10;;;0.20;69.40;;;;;;4161760;28;20049;-83
2023/03/27 02:32:32;;;;;;;9.40;1.23;;;0.30;68.70;;;;;;4165288;28;20029;-83
2023/03/27 02:34:51;;;;;;;11.38;1.40;;;0.30;68.90;;;;;;4129686;28;20030;-83
2023/03/27 02:37:03;;;;;;;13.88;1.58;;;0.30;69.00;;;;;;4147216;28;20691;-82
2023/03/27 02:39:47;;;;;;;4.97;1.20;;;0.30;69.00;;;;;;4148190;28;20087;-83
2023/03/27 02:42:25;;;;;;;9.98;1.48;;;0.30;69.20;;;;;;4142080;28;20052;-82
2023/03/27 02:44:50;;;;;;;11.65;1.45;;;0.20;69.10;;;;;;4164132;28;20092;-83
2023/03/27 02:47:06;;;;;;;24.25;2.33;;;0.30;69.00;;;;;;4164794;28;20143;-84
2023/03/27 02:49:13;;;;;;;8.35;1.25;;;0.30;68.90;;;;;;4160984;28;20500;-83
2023/03/27 02:51:39;;;;;;;9.57;1.50;;;0.30;69.00;;;;;;4147005;28;20026;-84
2023/03/27 02:53:49;;;;;;;8.70;1.40;;;0.20;69.10;;;;;;4146451;28;20603;-84
2023/03/27 02:55:57;;;;;;;9.95;1.75;;;0.30;69.10;;;;;;4162697;28;20021;-82
2023/03/27 02:58:11;;;;;;;13.68;1.65;;;0.20;69.10;;;;;;4158761;28;20030;-84
2023/03/27 03:00:25;;;;;;;12.25;1.48;;;0.20;69.20;;;;;;4143161;28;20108;-83
2023/03/27 03:02:31;;;;;;;10.63;1.55;;;0.20;69.30;;;;;;4143522;28;20026;-83
2023/03/27 03:04:40;;;;;;;6.03;1.05;;;0.20;69.30;;;;;;4141784;28;20413;-82
2023/03/27 03:06:43;;;;;;;7.97;1.58;;;0.20;69.40;;;;;;4163890;28;20052;-82
2023/03/27 03:08:45;;;;;;;9.82;1.33;;;0.20;69.40;;;;;;4141699;28;20030;-82
2023/03/27 03:10:46;;;;;;;8.85;1.10;;;0.20;69.40;;;;;;4140725;28;20026;-82
2023/03/27 03:13:02;;;;;;;15.60;1.70;;;0.20;69.40;;;;;;4143542;28;20487;-83
2023/03/27 03:15:23;;;;;;;12.48;1.48;;;0.20;69.40;;;;;;4159982;28;20092;-81
2023/03/27 03:17:44;;;;;;;9.05;1.38;;;0.20;69.40;;;;;;4142624;28;20029;-82
2023/03/27 03:20:07;;;;;;;6.82;1.20;;;0.20;69.40;;;;;;4140320;28;20124;-83
2023/03/27 03:22:29;;;;;;;12.45;1.58;;;0.20;69.40;;;;;;4144791;28;20393;-83
2023/03/27 03:24:49;;;;;;;8.02;1.10;;;0.20;69.40;;;;;;4158810;28;20053;-83
2023/03/27 03:27:13;;;;;;;8.63;1.40;;;0.20;69.40;;;;;;4160867;28;20076;-81
2023/03/27 03:29:36;;;;;;;8.25;1.20;;;0.20;69.40;;;;;;4157808;28;20229;-82
2023/03/27 03:31:57;;;;;;;10.80;1.20;;;0.20;69.40;;;;;;4143545;28;20018;-82
2023/03/27 03:34:17;;;;;;;9.65;1.33;;;0.20;69.40;;;;;;4156626;28;20030;-83
2023/03/27 03:36:40;;;;;;;6.50;1.33;;;0.20;69.50;;;;;;4147450;28;20030;-82
2023/03/27 03:38:41;;;;;;;14.60;1.30;;;0.20;69.50;;;;;;4146159;28;20030;-84
2023/03/27 03:40:42;;;;;;;3.70;1.20;;;0.20;69.50;;;;;;4162342;28;20103;-84
2023/03/27 03:42:47;;;;;;;12.40;1.23;;;0.20;69.50;;;;;;4148490;28;20037;-83
2023/03/27 03:44:47;;;;;;;5.70;1.20;;;0.10;69.40;;;;;;4129808;28;20203;-84
2023/03/27 03:46:48;;;;;;;7.68;1.30;;;0.10;69.40;;;;;;4159563;28;20052;-84
2023/03/27 03:48:49;;;;;;;8.85;1.35;;;0.10;69.40;;;;;;4143838;28;20022;-84
2023/03/27 03:50:49;;;;;;;4.43;1.38;;;0.10;69.40;;;;;;4160612;28;20063;-82
2023/03/27 03:52:50;;;;;;;12.90;1.20;;;0.10;69.50;;;;;;4145279;28;20018;-83
2023/03/27 03:54:51;;;;;;;9.50;1.27;;;0.10;69.50;;;;;;4141883;28;20026;-83
2023/03/27 03:56:52;;;;;;;7.25;1.30;;;0.10;69.40;;;;;;4132369;28;20053;-84
2023/03/27 03:58:52;;;;;;;10.70;1.50;;;0.00;69.40;;;;;;4161703;28;20022;-83
2023/03/27 04:00:53;;;;;;;8.25;1.02;;;0.00;69.40;;;;;;4129328;28;20413;-83
2023/03/27 04:02:55;;;;;;;7.35;1.40;;;0.00;69.50;;;;;;4142125;28;20040;-84
2023/03/27 04:04:57;;;;;;;8.80;1.42;;;0.00;69.40;;;;;;4128425;28;20027;-83
2023/03/27 04:06:58;;;;;;;9.20;1.00;;;0.00;69.50;;;;;;4143975;28;20084;-82
2023/03/27 04:08:59;;;;;;;12.38;1.50;;;0.00;69.50;;;;;;4127921;28;20156;-83
2023/03/27 04:11:00;;;;;;;7.78;0.95;;;0.00;69.50;;;;;;4144105;28;20034;-82
2023/03/27 04:13:00;;;;;;;4.68;1.17;;;0.00;69.40;;;;;;4142289;28;20409;-83
2023/03/27 04:15:01;;;;;;;4.28;1.15;;;0.10;69.50;;;;;;4145891;28;20053;-83
2023/03/27 04:17:02;;;;;;;10.02;1.30;;;-0.10;69.30;;;;;;4146435;28;20423;-83
2023/03/27 04:19:04;;;;;;;6.20;1.25;;;-0.10;69.40;;;;;;4142059;28;20520;-82
2023/03/27 04:21:13;;;;;;;5.75;1.33;;;-0.10;69.40;;;;;;4140583;28;20504;-82
2023/03/27 04:23:17;;;;;;;7.43;1.27;;;-0.10;69.30;;;;;;4127457;28;20037;-83
2023/03/27 04:25:17;;;;;;;7.05;1.48;;;-0.20;69.30;;;;;;4137310;28;20037;-83
2023/03/27 04:27:29;;;;;;;6.80;1.27;;;-0.20;69.30;;;;;;4128205;28;20057;-83
2023/03/27 04:29:30;;;;;;;6.68;1.10;;;-0.20;69.30;;;;;;4144237;28;20101;-83
2023/03/27 04:31:51;;;;;;;8.00;1.38;;;-0.20;69.20;;;;;;4147232;28;20124;-83
2023/03/27 04:34:11;;;;;;;7.75;1.40;;;-0.20;69.30;;;;;;4149770;28;20030;-83
2023/03/27 04:36:16;;;;;;;6.50;1.50;;;-0.20;69.30;;;;;;4146662;28;20570;-83
2023/03/27 04:38:38;;;;;;;6.78;1.30;;;-0.30;69.20;;;;;;4163540;28;20030;-83
2023/03/27 04:40:58;;;;;;;7.35;1.20;;;-0.30;69.20;;;;;;4164737;28;20044;-83
2023/03/27 04:43:20;;;;;;;7.40;1.15;;;-0.30;69.20;;;;;;4161373;28;20041;-83
2023/03/27 04:45:45;;;;;;;8.15;1.20;;;-0.30;69.20;;;;;;4146844;28;20026;-83
2023/03/27 04:48:06;;;;;;;9.50;1.50;;;-0.30;69.20;;;;;;4151616;28;20045;-83
2023/03/27 04:50:26;;;;;;;8.02;1.40;;;-0.40;69.20;;;;;;4139923;28;20108;-83
2023/03/27 04:52:47;;;;;;;9.45;1.55;;;-0.40;69.20;;;;;;4139134;28;20073;-83
2023/03/27 04:55:10;;;;;;;6.82;1.23;;;-0.40;69.20;;;;;;4142077;28;20033;-83
2023/03/27 04:57:31;;;;;;;5.18;1.38;;;-0.40;69.20;;;;;;4156176;28;20033;-82
2023/03/27 04:59:52;;;;;;;10.70;1.88;;;-0.40;69.20;;;;;;4146693;28;20045;-81
2023/03/27 05:02:13;;;;;;;11.45;1.80;;;-0.40;69.40;;;;;;4138862;28;20064;-82
2023/03/27 05:04:33;;;;;;;13.50;1.20;;;-0.40;69.50;;;;;;4140518;28;20133;-83
2023/03/27 05:06:55;;;;;;;9.50;1.65;;;-0.50;69.60;;;;;;4159573;28;20037;-81
2023/03/27 05:09:16;;;;;;;8.35;1.75;;;-0.50;69.60;;;;;;4155119;28;20034;-82
2023/03/27 05:11:37;;;;;;;10.90;2.63;;;-0.50;69.70;;;;;;4148812;28;20045;-84
2023/03/27 05:13:57;;;;;;;11.35;2.00;;;-0.50;69.60;;;;;;4148817;28;20069;-82
2023/03/27 05:16:18;;;;;;;24.65;13.02;;;-0.50;69.60;;;;;;4168081;28;20071;-83
2023/03/27 05:18:40;;;;;;;15.10;3.60;;;-0.50;69.80;;;;;;4166484;28;20033;-83
2023/03/27 05:20:42;;;;;;;13.77;2.10;;;-0.50;69.90;;;;;;4151629;28;20056;-84
2023/03/27 05:22:44;;;;;;;12.18;1.70;;;-0.50;70.00;;;;;;4147029;28;20022;-84
2023/03/27 05:24:45;;;;;;;12.85;1.85;;;-0.50;70.00;;;;;;4134445;28;20037;-84
2023/03/27 05:26:45;;;;;;;13.80;1.75;;;-0.50;70.20;;;;;;4147125;28;20116;-83
2023/03/27 05:28:46;;;;;;;9.93;1.30;;;-0.50;70.30;;;;;;4165436;28;20060;-84
2023/03/27 05:30:47;;;;;;;9.02;1.23;;;-0.40;70.60;;;;;;4170374;28;20101;-83
2023/03/27 05:32:53;;;;;;;3.40;0.97;;;-0.40;70.70;;;;;;4149069;28;20018;-82
2023/03/27 05:34:54;;;;;;;6.85;1.73;;;-0.40;70.80;;;;;;4145984;28;20492;-84
2023/03/27 05:36:54;;;;;;;8.45;1.30;;;-0.40;70.70;;;;;;4144680;28;20084;-84
2023/03/27 05:38:56;;;;;;;8.65;1.33;;;-0.40;70.90;;;;;;4167827;28;20017;-83
2023/03/27 05:40:58;;;;;;;11.13;1.73;;;-0.40;70.90;;;;;;4131803;28;20058;-83
2023/03/27 05:43:19;;;;;;;10.48;1.23;;;-0.40;71.00;;;;;;4164035;28;20029;-83
2023/03/27 05:45:40;;;;;;;8.75;1.58;;;-0.40;71.20;;;;;;4163277;28;20037;-83
2023/03/27 05:48:02;;;;;;;7.47;1.25;;;-0.30;71.30;;;;;;4165430;28;20041;-83
2023/03/27 05:50:02;;;;;;;6.40;1.00;;;-0.30;71.30;;;;;;4146476;28;20033;-83
2023/03/27 05:52:24;;;;;;;4.68;0.95;;;-0.20;71.50;;;;;;4161191;28;20049;-83
2023/03/27 05:54:44;;;;;;;13.57;1.10;;;-0.20;71.70;;;;;;4142290;28;20113;-83
2023/03/27 05:57:06;;;;;;;11.35;1.02;;;-0.20;71.70;;;;;;4158924;28;20137;-83
2023/03/27 05:59:27;;;;;;;6.68;1.17;;;-0.10;71.90;;;;;;4158817;28;20037;-83
2023/03/27 06:01:49;;;;;;;5.07;0.90;;;-0.10;72.10;;;;;;4159537;28;20021;-83
2023/03/27 06:04:11;;;;;;;6.97;1.17;;;0.00;72.20;;;;;;4147992;28;20107;-83
2023/03/27 06:06:31;;;;;;;13.50;1.25;;;0.00;72.30;;;;;;4145676;28;20040;-83
2023/03/27 06:08:52;;;;;;;6.25;1.00;;;0.10;72.50;;;;;;4161645;28;20033;-83
2023/03/27 06:11:16;;;;;;;10.73;1.17;;;0.20;72.50;;;;;;4147863;28;20048;-83
2023/03/27 06:13:17;;;;;;;8.10;1.00;;;0.30;72.60;;;;;;4140292;28;20033;-83
2023/03/27 06:15:19;;;;;;;4.35;1.05;;;0.30;72.60;;;;;;4143905;28;20021;-82
2023/03/27 06:17:19;;;;;;;5.60;1.00;;;0.30;72.80;;;;;;4142328;28;20145;-83
2023/03/27 06:19:23;;;;;;;4.72;1.38;;;0.40;72.90;;;;;;4126430;28;20018;-82
2023/03/27 06:21:24;;;;;;;7.00;1.05;;;0.40;73.00;;;;;;4144839;28;20486;-83
2023/03/27 06:23:24;;;;;;;11.68;1.20;;;0.50;73.20;;;;;;4160167;28;20010;-83
2023/03/27 06:25:26;;;;;;;5.57;0.90;;;0.50;73.30;;;;;;4142227;28;20065;-83
2023/03/27 06:27:45;;;;;;;9.70;1.33;;;0.60;73.40;;;;;;4128328;28;20070;-83
2023/03/27 06:29:46;;;;;;;10.32;1.65;;;0.60;73.30;;;;;;4133168;28;20301;-83
2023/03/27 06:31:47;;;;;;;8.18;1.35;;;0.70;73.50;;;;;;4143481;28;20212;-82
2023/03/27 06:33:48;;;;;;;8.30;1.42;;;0.80;73.50;;;;;;4123389;28;20105;-82
2023/03/27 06:35:48;;;;;;;13.85;1.27;;;0.80;73.60;;;;;;4118988;28;20473;-83
2023/03/27 06:37:49;;;;;;;8.35;1.17;;;0.90;73.70;;;;;;4124202;28;20030;-83
2023/03/27 06:39:50;;;;;;;7.25;0.95;;;0.90;73.70;;;;;;4160707;28;20031;-83
2023/03/27 06:41:52;;;;;;;7.90;1.45;;;1.00;73.70;;;;;;4132755;28;20035;-83
2023/03/27 06:43:53;;;;;;;6.90;0.80;;;1.00;73.70;;;;;;4139769;28;20076;-82
2023/03/27 06:45:54;;;;;;;7.45;1.38;;;1.10;73.80;;;;;;4143208;28;20785;-82
2023/03/27 06:47:57;;;;;;;6.88;1.08;;;1.10;73.80;;;;;;4137657;28;20732;-83
2023/03/27 06:50:06;;;;;;;8.63;1.05;;;1.20;73.90;;;;;;4144621;28;20022;-83
2023/03/27 06:52:26;;;;;;;4.40;1.13;;;1.20;73.80;;;;;;4145752;28;20041;-83
2023/03/27 06:54:47;;;;;;;7.75;1.00;;;1.30;73.90;;;;;;4146286;28;20041;-83
2023/03/27 06:56:50;;;;;;;15.60;1.13;;;1.40;73.80;;;;;;4142389;28;20025;-84
2023/03/27 06:59:11;;;;;;;7.75;1.15;;;1.40;73.70;;;;;;4160065;28;20013;-83
2023/03/27 07:01:32;;;;;;;3.95;0.90;;;1.50;73.70;;;;;;4159658;28;20045;-83
2023/03/27 07:03:52;;;;;;;9.25;1.20;;;1.60;73.70;;;;;;4144700;28;20125;-84
2023/03/27 07:06:13;;;;;;;4.25;0.82;;;1.60;73.50;;;;;;4152562;28;20384;-83
2023/03/27 07:08:34;;;;;;;5.85;1.15;;;1.80;73.70;;;;;;4142803;28;20050;-83
2023/03/27 07:10:55;;;;;;;7.55;1.35;;;1.70;73.60;;;;;;4147148;28;20038;-83
2023/03/27 07:13:16;;;;;;;6.90;1.08;;;1.80;73.30;;;;;;4147065;28;20014;-83
2023/03/27 07:15:36;;;;;;;5.88;1.02;;;1.90;73.30;;;;;;4147914;28;20033;-84
2023/03/27 07:17:59;;;;;;;5.20;0.82;;;1.90;73.00;;;;;;4160382;28;20033;-84
2023/03/27 07:20:21;;;;;;;8.63;1.30;;;2.00;72.50;;;;;;4146368;28;20030;-83
2023/03/27 07:22:42;;;;;;;11.13;1.13;;;2.10;72.40;;;;;;4152596;28;20283;-84
2023/03/27 07:25:03;;;;;;;14.45;1.10;;;2.20;72.00;;;;;;4145573;28;20137;-84
2023/03/27 07:27:24;;;;;;;4.88;0.90;;;2.20;71.70;;;;;;4143730;28;20030;-84
2023/03/27 07:29:25;;;;;;;6.15;0.82;;;2.30;71.20;;;;;;4139884;28;20767;-84
2023/03/27 07:31:26;;;;;;;6.00;0.88;;;2.30;71.20;;;;;;4158855;28;20037;-83
2023/03/27 07:33:26;;;;;;;5.43;1.15;;;2.40;71.30;;;;;;4143078;28;20045;-84
2023/03/27 07:35:27;;;;;;;9.80;1.17;;;2.50;71.30;;;;;;4158493;28;20061;-84
2023/03/27 07:37:29;;;;;;;12.65;0.95;;;2.50;70.80;;;;;;4156754;28;20025;-83
2023/03/27 07:39:32;;;;;;;9.07;1.00;;;2.50;70.80;;;;;;4126656;28;20041;-82
2023/03/27 07:41:53;;;;;;;8.02;1.00;;;2.60;70.40;;;;;;4142492;28;20034;-83
2023/03/27 07:43:53;;;;;;;8.07;0.65;;;2.70;69.70;;;;;;4139424;28;20372;-83
2023/03/27 07:46:14;;;;;;;5.90;0.90;;;2.80;69.60;;;;;;4142057;28;20057;-83
2023/03/27 07:48:15;;;;;;;10.95;1.13;;;2.90;68.60;;;;;;4126888;28;20018;-84
2023/03/27 07:50:36;;;;;;;8.00;0.95;;;2.90;68.20;;;;;;4141860;28;20437;-84
2023/03/27 07:52:57;;;;;;;8.55;0.88;;;3.00;67.90;;;;;;4139658;28;20608;-83
2023/03/27 07:55:18;;;;;;;10.30;0.95;;;3.00;67.10;;;;;;4161348;28;20029;-83
2023/03/27 07:57:43;;;;;;;7.07;1.10;;;3.10;67.10;;;;;;4156044;28;20033;-84
2023/03/27 08:00:10;;;;;;;8.57;0.90;;;3.10;66.60;;;;;;4156024;28;20044;-83
2023/03/27 08:02:31;;;;;;;4.75;0.70;;;3.20;66.20;;;;;;4156038;28;20053;-83
2023/03/27 08:04:42;;;;;;;9.38;0.80;;;3.30;65.20;;;;;;4137708;28;20036;-83
2023/03/27 08:07:04;;;;;;;4.78;1.00;;;3.30;65.00;;;;;;4141681;28;20038;-83
2023/03/27 08:09:24;;;;;;;5.50;1.10;;;3.40;65.20;;;;;;4154291;28;20042;-83
2023/03/27 08:11:45;;;;;;;7.80;1.20;;;3.50;64.60;;;;;;4157098;28;20033;-83
2023/03/27 08:14:08;;;;;;;6.53;0.95;;;3.50;63.60;;;;;;4156247;28;20044;-84
2023/03/27 08:16:28;;;;;;;9.55;1.15;;;3.60;63.50;;;;;;4157195;28;20034;-82
2023/03/27 08:18:49;;;;;;;8.93;1.02;;;3.70;63.80;;;;;;4156839;28;20021;-84
2023/03/27 08:21:10;;;;;;;12.02;1.20;;;3.80;64.60;;;;;;4156019;28;20036;-83
2023/03/27 08:23:32;;;;;;;9.52;1.10;;;3.80;62.50;;;;;;4145245;28;20025;-85
2023/03/27 08:25:53;;;;;;;5.60;0.90;;;3.90;62.20;;;;;;4152988;28;20045;-83
2023/03/27 08:28:14;;;;;;;4.15;0.95;;;4.00;60.80;;;;;;4150145;28;20042;-84
2023/03/27 08:30:35;;;;;;;6.72;1.02;;;4.00;60.00;;;;;;4158523;28;20132;-83
2023/03/27 08:32:38;;;;;;;8.52;1.20;;;4.00;58.60;;;;;;4143966;28;20382;-84
2023/03/27 08:34:39;;;;;;;6.68;0.90;;;4.10;58.00;;;;;;4146041;28;20018;-83
2023/03/27 08:36:40;;;;;;;7.00;1.00;;;4.10;57.80;;;;;;4166138;28;20036;-83
2023/03/27 08:38:41;;;;;;;5.05;0.70;;;4.10;57.30;;;;;;4165673;28;20077;-84
2023/03/27 08:40:52;;;;;;;7.78;1.40;;;4.20;57.80;;;;;;4142675;28;20105;-84
2023/03/27 08:42:57;;;;;;;8.43;1.10;;;4.30;58.00;;;;;;4159706;28;20039;-84
2023/03/27 08:45:21;;;;;;;9.35;1.17;;;4.30;57.70;;;;;;4130945;28;20014;-83
2023/03/27 08:47:29;;;;;;;15.88;1.13;;;4.40;57.30;;;;;;4145261;28;20026;-84
2023/03/27 08:49:35;;;;;;;9.40;1.00;;;4.40;56.70;;;;;;4147475;28;20032;-84
2023/03/27 08:51:59;;;;;;;15.38;1.58;;;4.40;55.80;;;;;;4149514;28;20034;-84
2023/03/27 08:54:29;;;;;;;7.40;1.15;;;4.50;56.00;;;;;;4161585;28;20036;-83
2023/03/27 08:56:51;;;;;;;12.82;1.35;;;4.50;54.90;;;;;;4147802;28;20034;-84
2023/03/27 08:59:14;;;;;;;14.85;1.63;;;4.50;54.80;;;;;;4157649;28;20167;-83
2023/03/27 09:01:47;;;;;;;7.68;0.88;;;4.50;54.90;;;;;;4145012;28;20044;-85
2023/03/27 09:04:20;;;;;;;9.98;1.48;;;4.50;55.30;;;;;;4159547;28;20026;-85
2023/03/27 09:06:49;;;;;;;13.07;1.60;;;4.50;55.70;;;;;;4157921;28;20037;-84
2023/03/27 09:09:08;;;;;;;12.38;1.27;;;4.40;56.20;;;;;;4156828;28;20092;-83
2023/03/27 09:11:31;;;;;;;14.18;1.95;;;4.40;56.30;;;;;;4125670;28;20034;-83
2023/03/27 09:13:50;;;;;;;10.85;1.17;;;4.30;56.80;;;;;;4140509;28;20057;-83
2023/03/27 09:15:57;;;;;;;12.88;1.45;;;4.10;57.70;;;;;;4160198;28;20030;-84
2023/03/27 09:18:06;;;;;;;9.57;1.10;;;4.10;58.40;;;;;;4161843;28;20022;-83
2023/03/27 09:20:24;;;;;;;14.00;1.42;;;4.00;59.00;;;;;;4140187;28;20500;-83
2023/03/27 09:22:51;;;;;;;9.55;1.27;;;3.90;59.60;;;;;;4146631;28;20038;-83
2023/03/27 09:24:56;;;;;;;9.68;1.15;;;3.80;60.50;;;;;;4130415;28;20041;-84
2023/03/27 09:27:28;;;;;;;12.75;1.00;;;3.80;60.90;;;;;;4143158;28;20064;-84
2023/03/27 09:30:19;;;;;;;7.75;1.33;;;3.70;62.20;;;;;;4159396;28;20044;-84
2023/03/27 09:32:41;;;;;;;14.13;1.58;;;3.70;63.00;;;;;;4160183;28;20036;-84
2023/03/27 09:35:04;;;;;;;8.93;1.17;;;3.80;64.20;;;;;;4156757;28;20124;-84
2023/03/27 09:37:26;;;;;;;4.88;1.13;;;3.80;64.00;;;;;;4156050;28;20141;-84
2023/03/27 09:39:51;;;;;;;5.90;0.88;;;3.80;64.20;;;;;;4160617;28;20120;-83
2023/03/27 09:42:21;;;;;;;4.60;0.90;;;3.90;64.00;;;;;;4164380;28;20108;-83
2023/03/27 09:44:45;;;;;;;3.40;0.63;;;3.90;63.70;;;;;;4155843;28;20037;-84
2023/03/27 09:46:49;;;;;;;7.45;0.80;;;4.00;63.60;;;;;;4140093;28;20077;-84
2023/03/27 09:49:18;;;;;;;8.68;0.57;;;4.00;63.30;;;;;;4146401;28;20121;-84
2023/03/27 09:51:43;;;;;;;3.75;0.80;;;4.00;63.10;;;;;;4146049;28;20512;-84
2023/03/27 09:54:05;;;;;;;10.10;0.85;;;4.00;63.10;;;;;;4146071;28;20084;-84
2023/03/27 09:56:27;;;;;;;5.35;0.80;;;4.00;62.70;;;;;;4147315;28;20096;-84
2023/03/27 09:58:29;;;;;;;;;;;4.00;62.70;;;;;;4132077;28;20109;-85
2023/03/27 10:01:24;;;;;;;3.60;0.63;;;4.00;62.50;;;;;;4160861;28;19975;-84
2023/03/27 10:03:53;;;;;;;6.32;0.63;;;4.10;61.60;;;;;;4161169;28;20033;-84
2023/03/27 10:06:24;;;;;;;4.88;0.52;;;4.10;61.90;;;;;;4155361;28;20815;-83
2023/03/27 10:08:46;;;;;;;11.32;0.77;;;4.20;62.30;;;;;;4159266;28;20102;-84
2023/03/27 10:11:14;;;;;;;9.05;0.70;;;4.20;62.80;;;;;;4145398;28;20045;-84
2023/03/27 10:13:35;;;;;;;4.40;0.88;;;4.30;62.80;;;;;;4156702;28;20120;-83
2023/03/27 10:16:01;;;;;;;5.53;1.10;;;4.40;61.90;;;;;;4139989;28;20034;-83
2023/03/27 10:18:28;;;;;;;7.05;0.85;;;4.50;61.80;;;;;;4143928;28;20033;-84
2023/03/27 10:20:30;;;;;;;6.80;0.70;;;4.50;62.30;;;;;;4141718;28;20083;-84
2023/03/27 10:22:39;;;;;;;3.67;0.80;;;4.60;62.00;;;;;;4128158;28;20066;-84
2023/03/27 10:24:40;;;;;;;5.38;0.85;;;4.60;61.10;;;;;;4159552;28;20037;-84
2023/03/27 10:26:41;;;;;;;5.22;0.80;;;4.70;60.90;;;;;;4157685;28;20029;-84
2023/03/27 10:28:47;;;;;;;4.07;0.80;;;4.80;60.60;;;;;;4126556;28;20034;-83
2023/03/27 10:31:26;;;;;;;5.05;0.60;;;4.90;60.00;;;;;;4162229;28;20065;-84
2023/03/27 10:33:47;;;;;;;7.85;0.80;;;5.00;59.40;;;;;;4162342;28;20043;-84
2023/03/27 10:36:10;;;;;;;4.32;0.85;;;5.00;58.90;;;;;;4154309;28;20045;-85
2023/03/27 10:38:33;;;;;;;9.20;1.20;;;5.10;58.40;;;;;;4144319;28;20121;-84
2023/03/27 10:40:47;;;;;;;4.60;0.77;;;5.10;58.40;;;;;;4126377;28;20699;-84
2023/03/27 10:43:42;;;;;;;10.68;1.10;;;5.10;58.40;;;;;;4159711;28;20123;-84
2023/03/27 10:46:04;;;;;;;;;;;5.20;58.70;;;;;;4156914;28;20478;-84
2023/03/27 10:48:53;;;;;;;3.92;0.80;;;5.30;58.10;;;;;;4144846;28;20415;-86
2023/03/27 10:51:33;;;;;;;4.30;0.90;;;5.30;57.20;;;;;;4154294;28;20231;-83
2023/03/27 10:54:08;;;;;;;3.88;0.77;;;5.40;57.70;;;;;;4161380;28;20036;-84
2023/03/27 10:56:41;;;;;;;14.70;1.35;;;5.40;58.40;;;;;;4159497;28;20040;-84
2023/03/27 10:59:10;;;;;;;6.35;0.82;;;5.40;58.20;;;;;;4142970;28;20082;-85
2023/03/27 11:01:17;;;;;;;5.88;1.10;;;5.50;58.10;;;;;;4160668;28;20033;-85
2023/03/27 11:03:44;;;;;;;11.45;1.27;;;5.50;58.00;;;;;;4144536;28;20030;-83
2023/03/27 11:05:47;;;;;;;5.88;0.70;;;5.50;57.60;;;;;;4155115;28;20026;-83
2023/03/27 11:08:07;;;;;;;8.45;0.90;;;5.60;57.70;;;;;;4157523;28;20041;-82
2023/03/27 11:10:20;;;;;;;7.45;1.13;;;5.60;57.10;;;;;;4126112;28;20194;-85
2023/03/27 11:12:49;;;;;;;6.25;0.65;;;5.70;57.20;;;;;;4161594;28;20037;-83
2023/03/27 11:15:10;;;;;;;8.95;0.93;;;5.80;56.50;;;;;;4127822;28;20034;-84
2023/03/27 11:17:39;;;;;;;4.38;0.47;;;5.80;55.40;;;;;;4164773;28;20029;-82
2023/03/27 11:20:06;;;;;;;2.35;0.52;;;5.80;55.30;;;;;;4156659;28;20044;-84
2023/03/27 11:22:39;;;;;;;2.38;0.52;;;5.80;55.30;;;;;;4141645;28;20034;-83
2023/03/27 11:25:23;;;;;;;3.67;0.50;;;5.70;55.80;;;;;;4147649;28;20056;-83
2023/03/27 11:28:00;;;;;;;6.30;0.77;;;5.70;56.60;;;;;;4145572;28;20037;-83
2023/03/27 11:30:09;;;;;;;4.95;0.60;;;5.60;56.50;;;;;;4156396;28;20033;-84
2023/03/27 11:32:46;;;;;;;4.55;0.60;;;5.60;56.40;;;;;;4159327;28;20061;-84
2023/03/27 11:35:12;;;;;;;3.05;0.52;;;5.70;57.00;;;;;;4159312;28;20033;-85
2023/03/27 11:38:10;;;;;;;9.10;0.93;;;5.60;56.30;;;;;;4167068;28;20202;-83
2023/03/27 11:40:42;;;;;;;3.70;0.70;;;5.60;56.70;;;;;;4128035;28;20037;-84
2023/03/27 11:43:03;;;;;;;3.97;0.73;;;5.60;56.00;;;;;;4149497;28;20035;-84
2023/03/27 11:45:28;;;;;;;5.32;0.70;;;5.60;56.10;;;;;;4167125;28;20101;-83
2023/03/27 11:48:05;;;;;;;3.10;0.30;;;5.40;58.30;;;;;;4167663;28;20037;-84